Terminal Aerodrome Forecast
Issued by NWS Shreveport, LA

Home | Current Version | Previous Version | Text Only | Print | Product List | Glossary On
Versions: 1 2 3 4 5 6 7 8 9 10 11 12 13 14 15 16 17 18 19 20 21 22 23 24
000
FTUS44 KSHV 250532
TAFGGG
TAF
KGGG 250532Z 2506/2606 21010KT P6SM VCSH SCT040
     FM250900 22012G18KT P6SM SKC
     FM251400 27012G18KT P6SM SKC
     FM252300 VRB04KT P6SM SKC=

USA.gov is the U.S. government's official web portal to all federal, state and local government web resources and services.